Time;durP1;ratioP1;P1;durP2;ratioP2;P2;SDS_P1;SDS_P2;PMS_P1;PMS_P2;Temp;Humidity;BMP_temperature;BMP_pressure;BME280_temperature;BME280_humidity;BME280_pressure;Samples;Min_cycle;Max_cycle;Signal;HPM_P1;HPM_P2
2021/12/05 00:23:11;;;;;;;51.60;26.00;;;;;;;2.76;100.00;97104.13;4994400;28;20354;-69
2021/12/05 00:25:37;;;;;;;55.07;26.50;;;;;;;2.57;100.00;97099.56;4994238;28;20351;-69
2021/12/05 00:41:49;;;;;;;63.10;30.37;;;;;;;2.59;100.00;97106.28;4994075;28;20276;-68
2021/12/05 00:52:08;;;;;;;55.97;28.40;;;;;;;2.68;100.00;97134.09;4992762;28;20684;-62
2021/12/05 00:57:27;;;;;;;65.83;29.50;;;;;;;2.60;100.00;97142.19;4992711;28;20307;-62
2021/12/05 01:15:27;;;;;;;62.27;28.83;;;;;;;2.63;100.00;97147.06;4992265;28;20636;-62
2021/12/05 01:18:09;;;;;;;61.90;29.40;;;;;;;2.77;100.00;97153.25;4992847;28;20468;-62
2021/12/05 01:20:40;;;;;;;58.97;28.00;;;;;;;2.77;100.00;97151.38;4992412;28;20294;-62
2021/12/05 01:23:22;;;;;;;61.60;28.50;;;;;;;2.78;100.00;97158.28;4992270;28;20734;-62
2021/12/05 01:26:04;;;;;;;59.67;28.77;;;;;;;2.68;100.00;97160.47;4992275;28;20298;-62
2021/12/05 01:31:56;;;;;;;58.63;27.67;;;;;;;2.72;100.00;97158.28;4992313;28;20294;-62
2021/12/05 01:44:33;;;;;;;64.30;29.20;;;;;;;2.94;100.00;97178.25;4943498;28;1407131;-62
2021/12/05 02:11:27;;;;;;;82.83;38.23;;;;;;;3.18;100.00;97176.94;4992137;28;20283;-63
2021/12/05 02:33:14;;;;;;;43.97;24.17;;;;;;;3.07;100.00;97219.72;4991902;28;20089;-61
2021/12/05 02:41:04;;;;;;;44.03;21.08;;;;;;;2.88;100.00;97251.06;4992154;28;20264;-61
2021/12/05 02:43:33;;;;;;;40.60;21.50;;;;;;;2.91;100.00;97255.16;4991408;28;20058;-61
2021/12/05 02:46:02;;;;;;;40.30;21.83;;;;;;;2.96;100.00;97265.94;4991540;28;20275;-61
2021/12/05 02:48:30;;;;;;;43.93;22.13;;;;;;;2.92;100.00;97278.69;4974827;28;20646;-61
2021/12/05 02:50:58;;;;;;;44.93;22.27;;;;;;;3.01;100.00;97286.47;4991698;28;20749;-61
2021/12/05 02:53:39;;;;;;;40.47;21.93;;;;;;;2.85;100.00;97287.59;4991775;28;20330;-61
2021/12/05 02:56:06;;;;;;;43.93;22.37;;;;;;;2.78;100.00;97297.25;4991735;28;20291;-61
2021/12/05 02:58:47;;;;;;;40.43;21.00;;;;;;;2.91;100.00;97303.44;4991808;28;20278;-61
2021/12/05 03:01:24;;;;;;;45.40;21.70;;;;;;;2.88;100.00;97308.31;4991678;28;20268;-61
2021/12/05 03:03:53;;;;;;;45.47;22.43;;;;;;;2.90;100.00;97309.72;4991879;28;20291;-61
2021/12/05 03:06:25;;;;;;;44.67;22.77;;;;;;;2.94;100.00;97317.28;4991754;28;20742;-61
2021/12/05 03:08:57;;;;;;;42.63;21.33;;;;;;;2.98;100.00;97321.16;4991691;28;20264;-62
2021/12/05 03:11:24;;;;;;;38.20;21.13;;;;;;;3.13;100.00;97327.13;4992270;28;20350;-62
2021/12/05 03:13:50;;;;;;;39.17;20.47;;;;;;;3.21;100.00;97324.34;4995594;28;20276;-63
2021/12/05 03:16:19;;;;;;;41.53;21.20;;;;;;;3.29;100.00;97337.41;4994267;28;20326;-62
2021/12/05 03:18:44;;;;;;;36.87;20.57;;;;;;;3.37;100.00;97339.88;4995504;28;20538;-62
2021/12/05 03:21:12;;;;;;;38.97;20.57;;;;;;;3.26;100.00;97348.34;4994231;28;20276;-62
2021/12/05 03:23:40;;;;;;;40.43;20.47;;;;;;;3.31;100.00;97351.22;4995524;28;20022;-62
2021/12/05 03:26:07;;;;;;;36.00;19.63;;;;;;;3.27;100.00;97355.25;4995029;28;20299;-62
2021/12/05 03:28:32;;;;;;;39.43;20.60;;;;;;;3.24;100.00;97350.34;4995019;28;21119;-62
2021/12/05 03:30:59;;;;;;;35.97;19.70;;;;;;;3.31;100.00;97355.69;4995155;28;20295;-63
2021/12/05 03:33:25;;;;;;;37.40;19.77;;;;;;;3.29;100.00;97361.16;4995069;28;20026;-62
2021/12/05 03:35:50;;;;;;;36.87;18.97;;;;;;;3.19;100.00;97372.06;4995205;28;20363;-62
2021/12/05 03:38:16;;;;;;;35.40;19.37;;;;;;;3.25;100.00;97373.91;4995143;28;20061;-62
2021/12/05 03:40:42;;;;;;;35.40;19.47;;;;;;;3.20;100.00;97375.50;4993872;28;20051;-62
2021/12/05 03:43:12;;;;;;;34.20;18.07;;;;;;;3.25;100.00;97384.47;4994822;28;20026;-62
2021/12/05 03:45:43;;;;;;;34.37;19.23;;;;;;;3.35;100.00;97384.13;4994989;28;20356;-63
2021/12/05 03:48:10;;;;;;;35.20;18.73;;;;;;;3.40;100.00;97388.84;4994972;28;20326;-62
2021/12/05 03:50:36;;;;;;;34.27;18.27;;;;;;;3.47;100.00;97387.84;4994813;28;20324;-62
2021/12/05 03:53:03;;;;;;;31.03;17.00;;;;;;;3.55;100.00;97398.28;4994763;28;20276;-62
2021/12/05 03:55:28;;;;;;;32.10;16.90;;;;;;;3.49;100.00;97403.50;4994798;28;20445;-62
2021/12/05 03:57:54;;;;;;;29.00;15.73;;;;;;;3.55;100.00;97408.84;4994739;28;20275;-62
2021/12/05 04:00:23;;;;;;;27.27;15.37;;;;;;;3.55;100.00;97402.75;4994668;28;20030;-62
2021/12/05 04:02:51;;;;;;;28.60;15.17;;;;;;;3.54;100.00;97407.22;4994661;28;20117;-62
2021/12/05 04:05:18;;;;;;;24.43;13.40;;;;;;;3.49;100.00;97395.59;4994511;28;20322;-62
2021/12/05 04:07:43;;;;;;;18.10;10.73;;;;;;;3.62;100.00;97406.22;4994393;28;20279;-62
2021/12/05 04:10:10;;;;;;;19.13;10.43;;;;;;;3.70;100.00;97414.00;4994357;28;20268;-62
2021/12/05 04:12:37;;;;;;;15.93;9.40;;;;;;;3.53;100.00;97408.22;4994460;28;20727;-62
2021/12/05 04:15:04;;;;;;;15.40;8.37;;;;;;;3.69;100.00;97415.03;4994340;28;20752;-62
2021/12/05 04:17:30;;;;;;;13.50;8.27;;;;;;;3.58;100.00;97426.09;4994569;28;20835;-62
2021/12/05 04:19:56;;;;;;;11.13;7.53;;;;;;;3.45;100.00;97420.75;4994367;28;20264;-62
2021/12/05 04:22:22;;;;;;;11.67;6.90;;;;;;;3.68;100.00;97428.41;4994173;28;20547;-62
2021/12/05 04:24:49;;;;;;;10.07;6.33;;;;;;;3.56;100.00;97434.25;4993505;28;20370;-62
2021/12/05 04:27:16;;;;;;;9.67;5.90;;;;;;;3.58;100.00;97431.38;4994104;28;20688;-62
2021/12/05 04:29:42;;;;;;;10.70;6.00;;;;;;;3.66;100.00;97430.44;4994163;28;20657;-62
2021/12/05 04:32:08;;;;;;;10.17;5.70;;;;;;;3.42;100.00;97435.16;4993986;28;20295;-62
2021/12/05 04:34:34;;;;;;;8.80;5.70;;;;;;;3.55;100.00;97432.63;4992865;28;20407;-62
2021/12/05 04:37:00;;;;;;;8.70;5.40;;;;;;;3.57;100.00;97433.25;4993908;28;20292;-62
2021/12/05 04:39:28;;;;;;;8.37;5.57;;;;;;;3.43;100.00;97434.16;4993947;28;20122;-62
2021/12/05 04:41:55;;;;;;;8.47;5.40;;;;;;;3.53;100.00;97428.53;4993753;28;20256;-62
2021/12/05 04:44:22;;;;;;;7.13;4.77;;;;;;;3.59;100.00;97436.47;4992382;28;20304;-62
2021/12/05 04:46:48;;;;;;;8.67;5.13;;;;;;;3.57;100.00;97438.53;4993978;28;20621;-62
2021/12/05 04:49:14;;;;;;;8.53;5.00;;;;;;;3.52;100.00;97432.19;4993681;28;20741;-63
2021/12/05 04:51:42;;;;;;;7.73;4.80;;;;;;;3.48;100.00;97439.66;4993670;28;20762;-62
2021/12/05 04:54:10;;;;;;;8.80;4.90;;;;;;;3.51;100.00;97436.63;4993613;28;20672;-62
2021/12/05 04:56:37;;;;;;;8.17;5.00;;;;;;;3.52;100.00;97446.19;4993687;28;20775;-62
2021/12/05 04:59:11;;;;;;;8.03;4.73;;;;;;;3.53;100.00;97447.00;4993665;28;20276;-62
2021/12/05 05:01:37;;;;;;;7.70;4.90;;;;;;;3.49;100.00;97454.50;4993690;28;20664;-62
2021/12/05 05:04:07;;;;;;;8.10;5.03;;;;;;;3.58;100.00;97455.97;4993675;28;20256;-62
2021/12/05 05:06:33;;;;;;;8.17;4.63;;;;;;;3.53;100.00;97452.28;4993505;28;20054;-62
2021/12/05 05:08:59;;;;;;;7.70;4.17;;;;;;;3.53;100.00;97453.13;4993551;28;20310;-62
2021/12/05 05:11:26;;;;;;;7.23;4.40;;;;;;;3.60;100.00;97453.97;4993284;28;20085;-62
2021/12/05 05:13:52;;;;;;;7.40;4.57;;;;;;;3.62;100.00;97453.78;4993273;28;20061;-62
2021/12/05 05:16:21;;;;;;;7.47;5.00;;;;;;;3.71;100.00;97451.78;4993425;28;20272;-62
2021/12/05 05:18:58;;;;;;;8.53;4.80;;;;;;;3.58;100.00;97463.91;4993161;28;20276;-62
2021/12/05 05:50:05;;;;;;;9.40;5.30;;;;;;;3.56;100.00;97446.63;4992822;28;20264;-62
2021/12/05 05:52:32;;;;;;;8.33;4.60;;;;;;;3.58;100.00;97448.06;4992511;28;20449;-62
2021/12/05 05:54:59;;;;;;;6.73;4.63;;;;;;;3.58;100.00;97455.97;4992589;28;20268;-62
2021/12/05 06:00:14;;;;;;;8.97;5.30;;;;;;;3.70;100.00;97445.69;4992520;28;20283;-62
2021/12/05 06:05:25;;;;;;;8.30;4.40;;;;;;;3.67;100.00;97445.28;4992225;28;20799;-63
2021/12/05 06:07:51;;;;;;;8.30;4.67;;;;;;;3.50;100.00;97456.13;4992380;28;20308;-62
2021/12/05 06:10:22;;;;;;;7.17;4.60;;;;;;;3.84;100.00;97454.50;4992035;28;20030;-62
2021/12/05 06:12:48;;;;;;;10.37;4.63;;;;;;;3.61;100.00;97463.53;4992242;28;20034;-62
2021/12/05 06:15:15;;;;;;;8.33;4.40;;;;;;;3.42;100.00;97458.09;4992173;28;20287;-62
2021/12/05 06:17:42;;;;;;;7.90;4.30;;;;;;;3.54;100.00;97462.66;4991819;28;20041;-62
2021/12/05 06:20:09;;;;;;;9.80;4.40;;;;;;;3.43;100.00;97467.66;4992152;28;20645;-62
2021/12/05 06:22:35;;;;;;;7.30;4.20;;;;;;;3.40;100.00;97468.03;4992154;28;20275;-62
2021/12/05 06:25:01;;;;;;;8.37;4.13;;;;;;;3.55;100.00;97469.59;4992112;28;20267;-62
2021/12/05 06:27:27;;;;;;;6.53;4.17;;;;;;;3.61;100.00;97475.91;4992012;28;20030;-62
2021/12/05 06:30:04;;;;;;;8.67;4.60;;;;;;;3.58;100.00;97478.94;4990879;28;20272;-62
2021/12/05 06:38:06;;;;;;;8.80;4.50;;;;;;;3.29;100.00;97479.94;4990895;28;20282;-62
2021/12/05 06:45:58;;;;;;;7.73;3.93;;;;;;;3.53;100.00;97471.59;4988190;28;20334;-62
2021/12/05 06:48:32;;;;;;;10.65;4.80;;;;;;;3.63;100.00;97463.34;4996077;28;20271;-62
2021/12/05 06:50:58;;;;;;;10.53;4.77;;;;;;;3.71;100.00;97471.09;4991659;28;20146;-62
2021/12/05 06:53:24;;;;;;;7.80;4.70;;;;;;;3.74;100.00;97469.91;4995432;28;20050;-62
2021/12/05 06:55:49;;;;;;;9.60;4.60;;;;;;;3.64;100.00;97481.63;4995796;28;20105;-62
2021/12/05 06:58:15;;;;;;;8.23;4.57;;;;;;;3.68;100.00;97479.44;4995568;28;20096;-62
2021/12/05 07:00:41;;;;;;;9.70;4.90;;;;;;;3.68;100.00;97497.91;4995942;28;20035;-62
2021/12/05 07:03:08;;;;;;;9.20;4.77;;;;;;;3.60;100.00;97500.69;4995433;28;20073;-62
2021/12/05 07:07:59;;;;;;;15.77;7.83;;;;;;;3.37;100.00;97495.63;4995571;28;20330;-63
2021/12/05 07:10:25;;;;;;;15.80;8.10;;;;;;;3.40;100.00;97505.00;4995562;28;20113;-62
2021/12/05 07:26:07;;;;;;;13.07;6.60;;;;;;;3.56;100.00;97513.47;4995432;28;20284;-63
2021/12/05 07:42:23;;;;;;;8.33;3.97;;;;;;;3.68;100.00;97520.88;4994936;28;20084;-63
2021/12/05 07:44:49;;;;;;;7.43;3.70;;;;;;;3.76;100.00;97518.91;4994926;28;20292;-62
2021/12/05 07:47:18;;;;;;;7.47;3.70;;;;;;;3.83;100.00;97513.66;4993412;28;20294;-64
2021/12/05 07:49:47;;;;;;;7.43;3.70;;;;;;;4.04;100.00;97507.50;4989317;28;20291;-62
2021/12/05 07:52:17;;;;;;;7.33;3.70;;;;;;;3.85;100.00;97506.34;4993343;28;20311;-62
2021/12/05 07:54:46;;;;;;;6.77;4.00;;;;;;;4.02;100.00;97501.59;4994523;28;20268;-62
2021/12/05 08:00:04;;;;;;;6.93;3.60;;;;;;;3.68;100.00;97494.47;4993657;28;20903;-62
2021/12/05 08:16:09;;;;;;;9.47;4.87;;;;;;;3.85;100.00;97515.09;4994277;28;20045;-62
2021/12/05 08:18:35;;;;;;;9.60;4.97;;;;;;;3.81;100.00;97526.22;4994279;28;20272;-61
2021/12/05 08:21:03;;;;;;;11.87;4.47;;;;;;;3.68;100.00;97526.97;4994175;28;20606;-62
2021/12/05 08:23:29;;;;;;;10.20;4.47;;;;;;;3.56;100.00;97521.41;4994335;28;20022;-62
2021/12/05 08:26:05;;;;;;;8.03;4.37;;;;;;;3.61;100.00;97515.53;4994246;28;20729;-62
2021/12/05 10:03:02;;;;;;;9.27;4.93;;;;;;;4.66;100.00;97541.75;4976822;28;20084;-63
2021/12/05 10:10:53;;;;;;;8.53;4.83;;;;;;;4.31;100.00;97549.72;4992236;28;20276;-62
2021/12/05 10:13:27;;;;;;;10.23;4.93;;;;;;;4.48;100.00;97546.78;4992377;28;20291;-63
2021/12/05 10:38:01;;;;;;;14.33;8.03;;;;;;;3.99;100.00;97532.66;4991427;28;20042;-61
2021/12/05 10:40:37;;;;;;;12.37;6.10;;;;;;;3.77;100.00;97519.72;4994578;28;20863;-62
2021/12/05 10:43:12;;;;;;;11.03;6.00;;;;;;;3.91;100.00;97513.50;4995062;28;20300;-63
2021/12/05 10:45:41;;;;;;;12.20;5.83;;;;;;;3.89;100.00;97508.41;4990991;28;20299;-64
2021/12/05 10:48:10;;;;;;;11.23;5.97;;;;;;;3.86;100.00;97514.09;4991508;28;20271;-65
2021/12/05 10:50:38;;;;;;;11.13;5.70;;;;;;;3.76;100.00;97502.22;4991368;28;20283;-63
2021/12/05 10:53:22;;;;;;;10.93;5.30;;;;;;;3.60;100.00;97520.00;5003324;28;20285;-64
2021/12/05 10:56:12;;;;;;;12.07;6.10;;;;;;;3.82;100.00;97525.22;5011113;28;20260;-64
2021/12/05 10:58:58;;;;;;;14.67;7.90;;;;;;;3.85;100.00;97525.66;4972265;28;20404;-63
2021/12/05 11:01:29;;;;;;;11.03;5.77;;;;;;;3.84;100.00;97518.75;4979444;28;20267;-62
2021/12/05 11:04:01;;;;;;;14.07;6.80;;;;;;;3.97;100.00;97524.13;4974880;28;20280;-64
2021/12/05 11:06:53;;;;;;;11.07;6.03;;;;;;;3.87;100.00;97522.81;4982118;28;20371;-64
2021/12/05 11:09:34;;;;;;;10.33;6.10;;;;;;;3.70;100.00;97530.22;4989952;28;20776;-64
2021/12/05 11:12:16;;;;;;;10.03;6.00;;;;;;;3.69;100.00;97535.72;4991703;28;20287;-65
2021/12/05 11:14:47;;;;;;;12.57;6.23;;;;;;;3.75;100.00;97541.03;4991653;28;20287;-65
2021/12/05 11:17:15;;;;;;;14.03;6.53;;;;;;;3.73;100.00;97547.50;4991527;28;20268;-64
2021/12/05 11:19:42;;;;;;;13.83;7.43;;;;;;;3.83;100.00;97538.25;4991260;28;20630;-65
2021/12/05 11:22:23;;;;;;;12.27;6.77;;;;;;;3.88;100.00;97551.72;4991600;28;20279;-64
2021/12/05 11:25:09;;;;;;;12.77;6.73;;;;;;;3.95;100.00;97546.44;4991563;28;20272;-64
2021/12/05 11:27:40;;;;;;;13.30;6.83;;;;;;;4.13;100.00;97549.44;4990276;28;20350;-64
2021/12/05 11:30:31;;;;;;;11.00;6.93;;;;;;;4.16;100.00;97549.03;4990349;28;20631;-64
2021/12/05 11:32:59;;;;;;;27.80;16.83;;;;;;;4.09;100.00;97550.81;4992539;28;20272;-64
2021/12/05 11:35:37;;;;;;;14.13;7.23;;;;;;;4.31;100.00;97544.44;4994897;28;20571;-64
2021/12/05 11:38:08;;;;;;;14.00;7.40;;;;;;;4.38;100.00;97543.66;4994093;28;20757;-63
2021/12/05 11:40:51;;;;;;;12.73;7.03;;;;;;;4.58;100.00;97540.09;4995015;28;20271;-64
2021/12/05 11:43:29;;;;;;;9.75;6.57;;;;;;;4.59;100.00;97536.44;4995257;28;20279;-65
2021/12/05 11:46:14;;;;;;;12.90;6.00;;;;;;;4.47;100.00;97537.19;4995121;28;20066;-63
2021/12/05 11:48:50;;;;;;;10.43;5.97;;;;;;;4.56;100.00;97541.31;4994926;28;20267;-64
2021/12/05 11:51:34;;;;;;;11.40;6.57;;;;;;;4.36;100.00;97543.88;4994868;28;20334;-63
2021/12/05 11:54:03;;;;;;;11.95;6.10;;;;;;;4.26;100.00;97546.88;4993717;28;20278;-64
2021/12/05 11:56:32;;;;;;;13.17;5.90;;;;;;;4.41;100.00;97545.91;4994655;28;20027;-64
2021/12/05 11:59:12;;;;;;;12.17;5.47;;;;;;;4.47;100.00;97537.19;4994746;28;20645;-64
2021/12/05 12:01:56;;;;;;;15.00;5.53;;;;;;;4.46;100.00;97535.56;4994499;28;20271;-65
2021/12/05 12:04:24;;;;;;;12.45;6.40;;;;;;;4.16;100.00;97540.28;4989041;28;20276;-64
2021/12/05 12:07:08;;;;;;;8.87;5.43;;;;;;;4.07;100.00;97547.56;4993606;28;20022;-65
2021/12/05 12:09:34;;;;;;;11.68;6.20;;;;;;;4.04;100.00;97542.66;4991684;28;20264;-63
2021/12/05 12:12:00;;;;;;;12.33;6.43;;;;;;;4.15;100.00;97539.50;4993994;28;20080;-64
2021/12/05 12:14:27;;;;;;;11.57;6.30;;;;;;;4.11;100.00;97542.69;4993947;28;20062;-65
2021/12/05 12:16:53;;;;;;;12.70;7.10;;;;;;;4.12;100.00;97534.56;4989953;28;20271;-65
2021/12/05 12:19:22;;;;;;;26.67;8.20;;;;;;;4.18;100.00;97541.72;4993851;28;20418;-65
2021/12/05 12:21:49;;;;;;;12.27;7.10;;;;;;;4.16;100.00;97543.72;4993527;28;20267;-65
2021/12/05 12:24:15;;;;;;;11.23;6.47;;;;;;;4.37;100.00;97540.22;4992539;28;20680;-65
2021/12/05 12:26:41;;;;;;;8.93;5.93;;;;;;;4.44;100.00;97527.00;4990558;28;21072;-65
2021/12/05 12:29:11;;;;;;;12.17;6.30;;;;;;;4.44;100.00;97525.19;4979114;28;20271;-63
2021/12/05 12:31:40;;;;;;;12.47;6.60;;;;;;;4.34;100.00;97522.91;4996719;28;20034;-63
2021/12/05 12:34:10;;;;;;;10.30;6.27;;;;;;;4.41;100.00;97512.34;4993416;28;20310;-64
2021/12/05 12:36:46;;;;;;;10.13;6.30;;;;;;;4.49;100.00;97514.84;5003888;28;20271;-65
2021/12/05 12:39:19;;;;;;;9.90;6.17;;;;;;;4.57;100.00;97512.00;4995650;28;20266;-66
2021/12/05 12:42:18;;;;;;;12.63;6.40;;;;;;;4.48;100.00;97525.59;4983542;28;20290;-65
2021/12/05 12:45:01;;;;;;;9.53;6.13;;;;;;;4.51;100.00;97514.59;4989046;28;20300;-64
2021/12/05 12:47:58;;;;;;;10.13;5.68;;;;;;;4.61;100.00;97518.53;4991099;28;20268;-65
2021/12/05 12:50:36;;;;;;;11.40;6.50;;;;;;;4.51;100.00;97507.50;4992621;28;20046;-65
2021/12/05 12:53:10;;;;;;;13.00;6.70;;;;;;;4.40;100.00;97504.59;4990806;28;20264;-64
2021/12/05 12:55:37;;;;;;;9.87;6.47;;;;;;;4.44;100.00;97501.38;4993152;28;20275;-65
2021/12/05 12:58:07;;;;;;;9.17;6.50;;;;;;;4.38;100.00;97500.31;4993335;28;20276;-64
2021/12/05 13:00:36;;;;;;;11.03;7.00;;;;;;;4.46;100.00;97504.63;4993186;28;20391;-65
2021/12/05 13:03:12;;;;;;;13.20;8.00;;;;;;;4.53;100.00;97500.19;4993541;28;20634;-64
2021/12/05 13:11:24;;;;;;;11.93;7.00;;;;;;;4.46;100.00;97509.13;4993361;28;20342;-64
2021/12/05 13:14:05;;;;;;;14.43;7.73;;;;;;;4.43;100.00;97504.22;4991736;28;20348;-64
2021/12/05 13:16:34;;;;;;;12.17;7.87;;;;;;;4.43;100.00;97509.50;4992748;28;20268;-64
2021/12/05 13:19:12;;;;;;;11.37;7.60;;;;;;;4.55;100.00;97506.09;4992353;28;20665;-64
2021/12/05 13:21:42;;;;;;;12.33;7.90;;;;;;;4.41;100.00;97507.03;4993026;28;20670;-64
2021/12/05 13:24:25;;;;;;;14.00;8.50;;;;;;;4.33;100.00;97504.59;4992828;28;20271;-64
2021/12/05 13:27:01;;;;;;;21.13;12.07;;;;;;;4.34;100.00;97516.78;4992510;28;20918;-64
2021/12/05 13:29:28;;;;;;;15.37;9.30;;;;;;;4.29;100.00;97514.72;4992206;28;20909;-64
2021/12/05 13:32:02;;;;;;;15.43;9.30;;;;;;;4.27;100.00;97516.75;4992576;28;20279;-65
2021/12/05 13:34:49;;;;;;;17.37;10.77;;;;;;;4.09;100.00;97520.94;4990435;28;20287;-64
2021/12/05 13:37:16;;;;;;;19.67;11.27;;;;;;;4.17;100.00;97513.66;4992575;28;20299;-63
2021/12/05 13:39:47;;;;;;;20.03;11.33;;;;;;;3.97;100.00;97518.00;4992418;28;20260;-63
2021/12/05 13:42:39;;;;;;;21.53;12.20;;;;;;;4.19;100.00;97511.63;4992584;28;20330;-64
2021/12/05 13:45:23;;;;;;;18.60;11.40;;;;;;;4.00;100.00;97513.16;4992301;28;20283;-64
2021/12/05 13:47:52;;;;;;;18.53;10.90;;;;;;;3.93;100.00;97504.34;4992400;28;20322;-63
2021/12/05 13:50:27;;;;;;;18.70;11.50;;;;;;;4.06;100.00;97492.22;4992459;28;20260;-63
2021/12/05 13:53:01;;;;;;;18.57;11.17;;;;;;;4.05;100.00;97502.00;4992455;28;20265;-64
2021/12/05 13:55:42;;;;;;;17.27;10.70;;;;;;;4.03;100.00;97501.38;4991885;28;21130;-63
2021/12/05 13:58:15;;;;;;;17.57;11.10;;;;;;;4.10;100.00;97501.41;4992061;28;20256;-63
2021/12/05 14:00:43;;;;;;;17.88;11.48;;;;;;;4.05;100.00;97504.63;4992200;28;20322;-64
2021/12/05 14:03:09;;;;;;;21.63;11.73;;;;;;;4.15;100.00;97505.13;4992152;28;20622;-64
2021/12/05 14:05:35;;;;;;;19.40;12.10;;;;;;;4.03;100.00;97511.16;4992025;28;20348;-64
2021/12/05 14:08:01;;;;;;;17.20;11.30;;;;;;;3.97;100.00;97523.28;4992166;28;20031;-64
2021/12/05 14:10:27;;;;;;;19.20;11.30;;;;;;;3.87;100.00;97520.19;4991730;28;20287;-63
2021/12/05 14:12:52;;;;;;;21.60;12.30;;;;;;;3.89;100.00;97529.56;4991138;28;20772;-64
2021/12/05 14:15:19;;;;;;;19.57;11.77;;;;;;;3.85;100.00;97530.94;4990865;28;20081;-64
2021/12/05 14:17:48;;;;;;;18.50;11.10;;;;;;;3.80;100.00;97530.72;4991466;28;20291;-64
2021/12/05 14:20:21;;;;;;;19.93;11.30;;;;;;;3.90;100.00;97523.25;4991687;28;20468;-63
2021/12/05 14:22:48;;;;;;;19.83;11.27;;;;;;;3.89;100.00;97524.28;4988023;28;20642;-64
2021/12/05 14:25:20;;;;;;;17.43;11.47;;;;;;;4.05;100.00;97522.31;4990193;28;20740;-64
2021/12/05 14:27:50;;;;;;;21.87;11.67;;;;;;;4.07;100.00;97525.59;4987825;28;20724;-64
2021/12/05 14:30:19;;;;;;;19.60;11.60;;;;;;;3.98;100.00;97528.38;4990385;28;20351;-63
2021/12/05 14:32:47;;;;;;;19.20;11.73;;;;;;;3.85;100.00;97530.94;4988845;28;20347;-63
2021/12/05 14:35:15;;;;;;;19.63;10.97;;;;;;;3.88;100.00;97532.38;4991695;28;20260;-62
2021/12/05 14:37:44;;;;;;;18.50;11.10;;;;;;;3.78;100.00;97539.84;4991627;28;20334;-63
2021/12/05 14:40:13;;;;;;;18.27;11.77;;;;;;;3.85;100.00;97546.78;4991613;28;20264;-63
2021/12/05 14:42:42;;;;;;;17.93;10.50;;;;;;;3.73;100.00;97550.16;4991667;28;20274;-64
2021/12/05 14:45:28;;;;;;;16.43;10.53;;;;;;;3.66;100.00;97555.41;4991632;28;20280;-63
2021/12/05 14:47:55;;;;;;;19.73;11.13;;;;;;;3.66;100.00;97555.41;4991388;28;20284;-64
2021/12/05 14:50:24;;;;;;;21.07;10.77;;;;;;;3.72;100.00;97559.09;4991737;28;20287;-65
2021/12/05 14:52:52;;;;;;;20.93;11.37;;;;;;;3.65;100.00;97553.75;4990362;28;20298;-63
2021/12/05 14:55:20;;;;;;;18.77;11.20;;;;;;;3.64;100.00;97560.06;4990566;28;20288;-64
2021/12/05 14:57:49;;;;;;;19.63;11.90;;;;;;;3.59;100.00;97565.06;4991124;28;20276;-63
2021/12/05 15:00:24;;;;;;;23.00;12.80;;;;;;;3.57;100.00;97567.13;4991621;28;20283;-63
2021/12/05 15:03:08;;;;;;;19.40;11.20;;;;;;;3.61;100.00;97571.00;4991383;28;20260;-63
2021/12/05 15:05:36;;;;;;;22.23;13.10;;;;;;;3.59;100.00;97563.25;4985200;28;20283;-63
2021/12/05 15:08:04;;;;;;;19.43;12.13;;;;;;;3.60;100.00;97556.16;4989293;28;20030;-62
2021/12/05 15:10:30;;;;;;;21.77;11.90;;;;;;;3.53;100.00;97561.38;4991758;28;20315;-63
2021/12/05 15:12:56;;;;;;;20.03;11.93;;;;;;;3.40;100.00;97555.16;4995139;28;20283;-64
2021/12/05 15:15:24;;;;;;;20.97;12.77;;;;;;;3.31;100.00;97559.78;4991386;28;20263;-63
2021/12/05 15:17:50;;;;;;;19.13;11.30;;;;;;;3.27;100.00;97569.06;4998266;28;20026;-63
2021/12/05 15:20:21;;;;;;;22.63;12.73;;;;;;;3.25;100.00;97563.16;5001049;28;20259;-63
2021/12/05 15:22:51;;;;;;;20.80;11.70;;;;;;;3.23;100.00;97575.75;4999290;28;20438;-63
2021/12/05 15:25:20;;;;;;;20.63;11.90;;;;;;;3.26;100.00;97580.63;4994333;28;20268;-64
2021/12/05 15:27:47;;;;;;;20.30;12.13;;;;;;;3.23;100.00;97583.66;4995192;28;20275;-63
2021/12/05 15:30:13;;;;;;;19.73;12.57;;;;;;;3.11;100.00;97579.88;4995104;28;20272;-63
2021/12/05 15:32:39;;;;;;;20.83;12.53;;;;;;;3.18;100.00;97588.66;4995018;28;20287;-63
2021/12/05 15:35:12;;;;;;;21.43;11.93;;;;;;;3.22;100.00;97589.94;4995137;28;20022;-64
2021/12/05 15:37:41;;;;;;;23.77;12.37;;;;;;;3.13;100.00;97593.69;4977475;28;20274;-63
2021/12/05 15:40:07;;;;;;;18.97;12.10;;;;;;;3.14;100.00;97592.69;4993692;28;20306;-64
2021/12/05 15:42:37;;;;;;;21.93;12.83;;;;;;;3.02;100.00;97589.72;4995039;28;20267;-63
2021/12/05 15:45:16;;;;;;;22.40;14.00;;;;;;;2.88;100.00;97590.59;4994342;28;20295;-64
2021/12/05 15:47:45;;;;;;;25.03;14.93;;;;;;;2.92;100.00;97597.09;4993803;28;20291;-65
2021/12/05 15:50:26;;;;;;;24.40;14.17;;;;;;;2.92;100.00;97594.47;4993690;28;20367;-67
2021/12/05 15:53:01;;;;;;;24.60;14.70;;;;;;;2.80;100.00;97602.06;4994724;28;20657;-64
2021/12/05 15:55:40;;;;;;;28.47;15.80;;;;;;;2.84;100.00;97608.59;4994723;28;20268;-62
2021/12/05 15:58:39;;;;;;;29.17;16.20;;;;;;;2.82;100.00;97602.69;4994600;28;20275;-63
2021/12/05 16:01:13;;;;;;;30.20;16.10;;;;;;;2.80;100.00;97611.78;4990426;28;20334;-63
2021/12/05 16:03:51;;;;;;;27.93;16.23;;;;;;;2.83;100.00;97614.88;4986449;28;20292;-62
2021/12/05 16:06:19;;;;;;;30.30;16.53;;;;;;;2.88;100.00;97611.69;4975134;28;20300;-62
2021/12/05 16:08:49;;;;;;;31.83;17.43;;;;;;;2.89;100.00;97608.03;4973880;28;20272;-64
2021/12/05 16:11:21;;;;;;;29.80;16.87;;;;;;;2.88;100.00;97609.06;4989860;28;20284;-62
2021/12/05 16:13:50;;;;;;;32.73;16.83;;;;;;;2.86;100.00;97608.41;4974922;28;20327;-62
2021/12/05 16:16:27;;;;;;;27.47;16.53;;;;;;;2.78;100.00;97611.13;4978873;28;20480;-64
2021/12/05 16:18:56;;;;;;;32.50;16.93;;;;;;;2.78;100.00;97621.69;5000517;28;20267;-62
2021/12/05 16:21:33;;;;;;;31.57;18.10;;;;;;;2.84;100.00;97620.97;5006021;28;20270;-61
2021/12/05 16:24:07;;;;;;;37.00;19.20;;;;;;;2.87;100.00;97625.88;5013617;28;20282;-60
2021/12/05 16:26:33;;;;;;;32.97;19.57;;;;;;;2.96;100.00;97624.78;5013820;28;20889;-61
2021/12/05 16:29:04;;;;;;;32.23;19.30;;;;;;;2.79;100.00;97624.16;5013669;28;20286;-60
2021/12/05 16:31:41;;;;;;;35.23;20.03;;;;;;;2.87;100.00;97620.59;5004305;28;20286;-61
2021/12/05 16:34:10;;;;;;;34.77;18.63;;;;;;;2.83;100.00;97621.97;4993902;28;20272;-61
2021/12/05 16:36:40;;;;;;;35.60;18.37;;;;;;;2.83;100.00;97617.50;4991231;28;20346;-61
2021/12/05 16:39:18;;;;;;;29.97;16.93;;;;;;;2.81;100.00;97618.69;4993679;28;20311;-60
2021/12/05 16:41:52;;;;;;;37.17;18.50;;;;;;;2.74;100.00;97618.63;4993485;28;20280;-61
2021/12/05 16:44:24;;;;;;;33.17;17.87;;;;;;;2.70;100.00;97619.97;4993559;28;20288;-61
2021/12/05 16:46:57;;;;;;;31.73;17.30;;;;;;;2.69;100.00;97628.91;4993816;28;20343;-63
2021/12/05 16:49:30;;;;;;;34.30;17.58;;;;;;;2.69;100.00;97628.91;4993778;28;20306;-62
2021/12/05 16:52:08;;;;;;;41.00;20.92;;;;;;;2.84;100.00;97639.44;4989701;28;20476;-62
2021/12/05 16:54:42;;;;;;;36.80;19.30;;;;;;;2.85;100.00;97641.91;4993017;28;20033;-62
2021/12/05 16:57:12;;;;;;;38.07;19.13;;;;;;;2.81;100.00;97643.25;4974455;28;20272;-62
2021/12/05 16:59:48;;;;;;;40.50;20.97;;;;;;;2.72;100.00;97636.44;4991244;28;20953;-61
2021/12/05 17:02:30;;;;;;;43.50;23.90;;;;;;;2.69;100.00;97643.91;4993442;28;20761;-61
2021/12/05 17:05:05;;;;;;;48.87;25.47;;;;;;;2.67;100.00;97646.72;4990974;28;20344;-61
2021/12/05 17:07:41;;;;;;;51.17;27.37;;;;;;;2.74;100.00;97652.91;4992846;28;20259;-62
2021/12/05 17:10:21;;;;;;;54.43;28.70;;;;;;;2.68;100.00;97661.53;4993194;28;20268;-61
2021/12/05 17:12:50;;;;;;;49.03;27.43;;;;;;;2.64;100.00;97664.75;4973502;28;20283;-61
2021/12/05 17:15:29;;;;;;;52.60;28.70;;;;;;;2.65;100.00;97663.75;4973788;28;20626;-61
2021/12/05 17:18:02;;;;;;;52.73;30.10;;;;;;;2.57;100.00;97664.63;4988485;28;20272;-61
2021/12/05 17:20:44;;;;;;;49.33;27.20;;;;;;;2.59;100.00;97665.28;4992559;28;20736;-61
2021/12/05 17:23:17;;;;;;;51.67;26.47;;;;;;;2.58;100.00;97660.19;4991786;28;20347;-61